sensor_id;sensor_type;location;lat;lon;timestamp;temperature;humidity
46976;DHT22;32724;51.094;6.996;2023-04-24T00:02:03;10.10;99.90
46976;DHT22;32724;51.094;6.996;2023-04-24T00:04:29;10.20;99.90
46976;DHT22;32724;51.094;6.996;2023-04-24T00:06:55;10.20;99.90
46976;DHT22;32724;51.094;6.996;2023-04-24T00:09:22;10.10;99.90
46976;DHT22;32724;51.094;6.996;2023-04-24T00:11:48;10.10;99.90
46976;DHT22;32724;51.094;6.996;2023-04-24T00:14:13;10.10;99.90
46976;DHT22;32724;51.094;6.996;2023-04-24T00:16:39;10.30;99.90
46976;DHT22;32724;51.094;6.996;2023-04-24T00:19:04;10.40;99.90
46976;DHT22;32724;51.094;6.996;2023-04-24T00:21:31;10.50;99.90
46976;DHT22;32724;51.094;6.996;2023-04-24T00:23:58;10.70;99.90
46976;DHT22;32724;51.094;6.996;2023-04-24T00:26:23;10.80;99.90
46976;DHT22;32724;51.094;6.996;2023-04-24T00:28:48;10.90;99.90
46976;DHT22;32724;51.094;6.996;2023-04-24T00:31:14;10.90;99.90
46976;DHT22;32724;51.094;6.996;2023-04-24T00:33:40;10.90;99.90
46976;DHT22;32724;51.094;6.996;2023-04-24T00:36:05;10.90;99.90
46976;DHT22;32724;51.094;6.996;2023-04-24T00:38:31;10.90;99.90
46976;DHT22;32724;51.094;6.996;2023-04-24T00:40:56;10.90;99.90
46976;DHT22;32724;51.094;6.996;2023-04-24T00:43:22;10.70;99.90
46976;DHT22;32724;51.094;6.996;2023-04-24T00:45:47;10.40;99.90
46976;DHT22;32724;51.094;6.996;2023-04-24T00:48:13;10.30;99.90
46976;DHT22;32724;51.094;6.996;2023-04-24T00:50:39;10.20;99.90
46976;DHT22;32724;51.094;6.996;2023-04-24T00:53:05;10.30;99.90
46976;DHT22;32724;51.094;6.996;2023-04-24T00:55:30;10.40;99.90
46976;DHT22;32724;51.094;6.996;2023-04-24T00:57:56;10.60;99.90
46976;DHT22;32724;51.094;6.996;2023-04-24T01:00:22;10.70;99.90
46976;DHT22;32724;51.094;6.996;2023-04-24T01:02:47;10.80;99.90
46976;DHT22;32724;51.094;6.996;2023-04-24T01:05:14;10.90;99.90
46976;DHT22;32724;51.094;6.996;2023-04-24T01:07:43;10.90;99.90
46976;DHT22;32724;51.094;6.996;2023-04-24T01:10:11;11.00;99.90
46976;DHT22;32724;51.094;6.996;2023-04-24T01:12:37;10.90;99.90
46976;DHT22;32724;51.094;6.996;2023-04-24T01:15:02;11.00;99.90
46976;DHT22;32724;51.094;6.996;2023-04-24T01:17:29;11.00;99.90
46976;DHT22;32724;51.094;6.996;2023-04-24T01:19:54;10.90;99.90
46976;DHT22;32724;51.094;6.996;2023-04-24T01:22:22;10.90;99.90
46976;DHT22;32724;51.094;6.996;2023-04-24T01:24:47;10.90;99.90
46976;DHT22;32724;51.094;6.996;2023-04-24T01:27:13;11.00;99.90
46976;DHT22;32724;51.094;6.996;2023-04-24T01:29:38;11.00;99.90
46976;DHT22;32724;51.094;6.996;2023-04-24T01:32:04;11.00;99.90
46976;DHT22;32724;51.094;6.996;2023-04-24T01:34:30;11.00;99.90
46976;DHT22;32724;51.094;6.996;2023-04-24T01:36:55;11.00;99.90
46976;DHT22;32724;51.094;6.996;2023-04-24T01:39:21;11.00;99.90
46976;DHT22;32724;51.094;6.996;2023-04-24T01:41:48;10.90;99.90
46976;DHT22;32724;51.094;6.996;2023-04-24T01:44:15;10.80;99.90
46976;DHT22;32724;51.094;6.996;2023-04-24T01:46:41;10.70;99.90
46976;DHT22;32724;51.094;6.996;2023-04-24T01:49:06;10.60;99.90
46976;DHT22;32724;51.094;6.996;2023-04-24T01:51:32;10.50;99.90
46976;DHT22;32724;51.094;6.996;2023-04-24T01:53:57;10.40;99.90
46976;DHT22;32724;51.094;6.996;2023-04-24T01:56:22;10.30;99.90
46976;DHT22;32724;51.094;6.996;2023-04-24T01:58:51;10.20;99.90
46976;DHT22;32724;51.094;6.996;2023-04-24T02:01:18;10.10;99.90
46976;DHT22;32724;51.094;6.996;2023-04-24T02:03:43;10.00;99.90
46976;DHT22;32724;51.094;6.996;2023-04-24T02:06:09;9.90;99.90
46976;DHT22;32724;51.094;6.996;2023-04-24T02:08:34;9.60;99.90
46976;DHT22;32724;51.094;6.996;2023-04-24T02:11:00;9.20;99.90
46976;DHT22;32724;51.094;6.996;2023-04-24T02:13:27;9.00;99.90
46976;DHT22;32724;51.094;6.996;2023-04-24T02:15:52;8.90;99.90
46976;DHT22;32724;51.094;6.996;2023-04-24T02:18:18;8.90;99.90
46976;DHT22;32724;51.094;6.996;2023-04-24T02:20:43;8.90;99.90
46976;DHT22;32724;51.094;6.996;2023-04-24T02:23:08;8.90;99.90
46976;DHT22;32724;51.094;6.996;2023-04-24T02:25:34;8.90;99.90
46976;DHT22;32724;51.094;6.996;2023-04-24T02:28:00;8.90;99.90
46976;DHT22;32724;51.094;6.996;2023-04-24T02:30:25;8.90;99.90
46976;DHT22;32724;51.094;6.996;2023-04-24T02:32:50;8.90;99.90
46976;DHT22;32724;51.094;6.996;2023-04-24T02:35:16;8.90;99.90
46976;DHT22;32724;51.094;6.996;2023-04-24T02:37:42;8.90;99.90
46976;DHT22;32724;51.094;6.996;2023-04-24T02:40:08;8.90;99.90
46976;DHT22;32724;51.094;6.996;2023-04-24T02:42:33;8.80;99.90
46976;DHT22;32724;51.094;6.996;2023-04-24T02:44:59;8.80;99.90
46976;DHT22;32724;51.094;6.996;2023-04-24T02:47:25;8.70;99.90
46976;DHT22;32724;51.094;6.996;2023-04-24T02:49:50;8.80;99.90
46976;DHT22;32724;51.094;6.996;2023-04-24T02:52:16;8.80;99.90
46976;DHT22;32724;51.094;6.996;2023-04-24T02:54:42;8.90;99.90
46976;DHT22;32724;51.094;6.996;2023-04-24T02:57:08;9.00;99.90
46976;DHT22;32724;51.094;6.996;2023-04-24T02:59:33;9.10;99.90
46976;DHT22;32724;51.094;6.996;2023-04-24T03:01:59;9.20;99.90
46976;DHT22;32724;51.094;6.996;2023-04-24T03:04:24;9.20;99.90
46976;DHT22;32724;51.094;6.996;2023-04-24T03:06:50;9.30;99.90
46976;DHT22;32724;51.094;6.996;2023-04-24T03:09:18;9.30;99.90
46976;DHT22;32724;51.094;6.996;2023-04-24T03:11:43;9.40;99.90
46976;DHT22;32724;51.094;6.996;2023-04-24T03:14:09;9.40;99.90
46976;DHT22;32724;51.094;6.996;2023-04-24T03:16:34;9.40;99.90
46976;DHT22;32724;51.094;6.996;2023-04-24T03:19:00;9.10;99.90
46976;DHT22;32724;51.094;6.996;2023-04-24T03:21:25;8.90;99.90
46976;DHT22;32724;51.094;6.996;2023-04-24T03:23:51;8.90;99.90
46976;DHT22;32724;51.094;6.996;2023-04-24T03:26:17;8.90;99.90
46976;DHT22;32724;51.094;6.996;2023-04-24T03:28:42;9.00;99.90
46976;DHT22;32724;51.094;6.996;2023-04-24T03:31:08;9.10;99.90
46976;DHT22;32724;51.094;6.996;2023-04-24T03:33:33;9.20;99.90
46976;DHT22;32724;51.094;6.996;2023-04-24T03:35:59;9.30;99.90
46976;DHT22;32724;51.094;6.996;2023-04-24T03:38:24;9.30;99.90
46976;DHT22;32724;51.094;6.996;2023-04-24T03:40:50;9.40;99.90
46976;DHT22;32724;51.094;6.996;2023-04-24T03:43:15;9.40;99.90
46976;DHT22;32724;51.094;6.996;2023-04-24T03:45:40;9.40;99.90
46976;DHT22;32724;51.094;6.996;2023-04-24T03:48:06;9.40;99.90
46976;DHT22;32724;51.094;6.996;2023-04-24T03:50:32;9.40;99.90
46976;DHT22;32724;51.094;6.996;2023-04-24T03:52:58;9.40;99.90
46976;DHT22;32724;51.094;6.996;2023-04-24T03:55:23;9.40;99.90
46976;DHT22;32724;51.094;6.996;2023-04-24T03:57:49;9.40;99.90
46976;DHT22;32724;51.094;6.996;2023-04-24T04:00:15;9.40;99.90
46976;DHT22;32724;51.094;6.996;2023-04-24T04:02:41;9.40;99.90
46976;DHT22;32724;51.094;6.996;2023-04-24T04:05:06;9.40;99.90
46976;DHT22;32724;51.094;6.996;2023-04-24T04:07:33;9.40;99.90
46976;DHT22;32724;51.094;6.996;2023-04-24T04:09:58;9.50;99.90
46976;DHT22;32724;51.094;6.996;2023-04-24T04:12:24;9.50;99.90
46976;DHT22;32724;51.094;6.996;2023-04-24T04:14:49;9.40;99.90
46976;DHT22;32724;51.094;6.996;2023-04-24T04:17:15;9.50;99.90
46976;DHT22;32724;51.094;6.996;2023-04-24T04:19:40;9.50;99.90
46976;DHT22;32724;51.094;6.996;2023-04-24T04:22:07;9.50;99.90
46976;DHT22;32724;51.094;6.996;2023-04-24T04:24:33;9.50;99.90
46976;DHT22;32724;51.094;6.996;2023-04-24T04:26:59;9.50;99.90
46976;DHT22;32724;51.094;6.996;2023-04-24T04:29:24;9.50;99.90
46976;DHT22;32724;51.094;6.996;2023-04-24T04:31:51;9.20;99.90
46976;DHT22;32724;51.094;6.996;2023-04-24T04:34:16;9.00;99.90
46976;DHT22;32724;51.094;6.996;2023-04-24T04:36:42;8.90;99.90
46976;DHT22;32724;51.094;6.996;2023-04-24T04:39:08;8.80;99.90
46976;DHT22;32724;51.094;6.996;2023-04-24T04:41:33;8.90;99.90
46976;DHT22;32724;51.094;6.996;2023-04-24T04:44:02;8.70;99.90
46976;DHT22;32724;51.094;6.996;2023-04-24T04:46:30;8.50;99.90
46976;DHT22;32724;51.094;6.996;2023-04-24T04:48:57;8.50;99.90
46976;DHT22;32724;51.094;6.996;2023-04-24T04:51:23;8.40;99.90
46976;DHT22;32724;51.094;6.996;2023-04-24T04:53:48;8.50;99.90
46976;DHT22;32724;51.094;6.996;2023-04-24T04:56:13;8.70;99.90
46976;DHT22;32724;51.094;6.996;2023-04-24T04:58:39;8.70;99.90
46976;DHT22;32724;51.094;6.996;2023-04-24T05:01:04;8.90;99.90
46976;DHT22;32724;51.094;6.996;2023-04-24T05:03:30;9.00;99.90
46976;DHT22;32724;51.094;6.996;2023-04-24T05:05:55;9.00;99.90
46976;DHT22;32724;51.094;6.996;2023-04-24T05:08:22;9.10;99.90
46976;DHT22;32724;51.094;6.996;2023-04-24T05:10:47;9.10;99.90
46976;DHT22;32724;51.094;6.996;2023-04-24T05:13:13;9.20;99.90
46976;DHT22;32724;51.094;6.996;2023-04-24T05:15:39;9.20;99.90
46976;DHT22;32724;51.094;6.996;2023-04-24T05:18:04;9.30;99.90
46976;DHT22;32724;51.094;6.996;2023-04-24T05:20:30;9.30;99.90
46976;DHT22;32724;51.094;6.996;2023-04-24T05:22:55;9.40;99.90
46976;DHT22;32724;51.094;6.996;2023-04-24T05:25:21;9.40;99.90
46976;DHT22;32724;51.094;6.996;2023-04-24T05:27:46;9.40;99.90
46976;DHT22;32724;51.094;6.996;2023-04-24T05:30:12;9.40;99.90
46976;DHT22;32724;51.094;6.996;2023-04-24T05:32:38;9.30;99.90
46976;DHT22;32724;51.094;6.996;2023-04-24T05:35:03;9.10;99.90
46976;DHT22;32724;51.094;6.996;2023-04-24T05:37:29;9.00;99.90
46976;DHT22;32724;51.094;6.996;2023-04-24T05:39:54;8.80;99.90
46976;DHT22;32724;51.094;6.996;2023-04-24T05:42:21;8.70;99.90
46976;DHT22;32724;51.094;6.996;2023-04-24T05:44:46;8.70;99.90
46976;DHT22;32724;51.094;6.996;2023-04-24T05:47:12;8.70;99.90
46976;DHT22;32724;51.094;6.996;2023-04-24T05:49:37;8.60;99.90
46976;DHT22;32724;51.094;6.996;2023-04-24T05:52:03;8.60;99.90
46976;DHT22;32724;51.094;6.996;2023-04-24T05:54:30;8.60;99.90
46976;DHT22;32724;51.094;6.996;2023-04-24T05:56:56;8.50;99.90
46976;DHT22;32724;51.094;6.996;2023-04-24T05:59:21;8.40;99.90
46976;DHT22;32724;51.094;6.996;2023-04-24T06:01:46;8.40;99.90
46976;DHT22;32724;51.094;6.996;2023-04-24T06:04:12;8.40;99.90
46976;DHT22;32724;51.094;6.996;2023-04-24T06:06:39;8.40;99.90
46976;DHT22;32724;51.094;6.996;2023-04-24T06:09:04;8.40;99.90
46976;DHT22;32724;51.094;6.996;2023-04-24T06:11:30;8.50;99.90
46976;DHT22;32724;51.094;6.996;2023-04-24T06:13:55;8.50;99.90
46976;DHT22;32724;51.094;6.996;2023-04-24T06:16:21;8.60;99.90
46976;DHT22;32724;51.094;6.996;2023-04-24T06:18:46;8.70;99.90
46976;DHT22;32724;51.094;6.996;2023-04-24T06:21:12;8.80;99.90
46976;DHT22;32724;51.094;6.996;2023-04-24T06:23:37;8.90;99.90
46976;DHT22;32724;51.094;6.996;2023-04-24T06:26:03;8.90;99.90
46976;DHT22;32724;51.094;6.996;2023-04-24T06:28:29;9.00;99.90
46976;DHT22;32724;51.094;6.996;2023-04-24T06:30:54;9.00;99.90
46976;DHT22;32724;51.094;6.996;2023-04-24T06:33:21;9.10;99.90
46976;DHT22;32724;51.094;6.996;2023-04-24T06:35:46;8.70;99.90
46976;DHT22;32724;51.094;6.996;2023-04-24T06:38:12;8.60;99.90
46976;DHT22;32724;51.094;6.996;2023-04-24T06:40:37;8.60;99.90
46976;DHT22;32724;51.094;6.996;2023-04-24T06:43:02;8.50;99.90
46976;DHT22;32724;51.094;6.996;2023-04-24T06:45:28;8.50;99.90
46976;DHT22;32724;51.094;6.996;2023-04-24T06:47:54;8.40;99.90
46976;DHT22;32724;51.094;6.996;2023-04-24T06:50:20;8.20;99.90
46976;DHT22;32724;51.094;6.996;2023-04-24T06:52:45;8.10;99.90
46976;DHT22;32724;51.094;6.996;2023-04-24T06:55:11;8.10;99.90
46976;DHT22;32724;51.094;6.996;2023-04-24T06:57:36;8.10;99.90
46976;DHT22;32724;51.094;6.996;2023-04-24T07:00:03;8.10;99.90
46976;DHT22;32724;51.094;6.996;2023-04-24T07:02:28;8.10;99.90
46976;DHT22;32724;51.094;6.996;2023-04-24T07:04:54;8.10;99.90
46976;DHT22;32724;51.094;6.996;2023-04-24T07:07:19;8.10;99.90
46976;DHT22;32724;51.094;6.996;2023-04-24T07:09:45;8.10;99.90
46976;DHT22;32724;51.094;6.996;2023-04-24T07:12:11;8.10;99.90
46976;DHT22;32724;51.094;6.996;2023-04-24T07:14:37;8.10;99.90
46976;DHT22;32724;51.094;6.996;2023-04-24T07:17:03;8.10;99.90
46976;DHT22;32724;51.094;6.996;2023-04-24T07:19:29;8.20;99.90
46976;DHT22;32724;51.094;6.996;2023-04-24T07:21:54;8.20;99.90
46976;DHT22;32724;51.094;6.996;2023-04-24T07:24:20;8.10;99.90
46976;DHT22;32724;51.094;6.996;2023-04-24T07:26:46;8.10;99.90
46976;DHT22;32724;51.094;6.996;2023-04-24T07:29:12;8.10;99.90
46976;DHT22;32724;51.094;6.996;2023-04-24T07:31:39;8.10;99.90
46976;DHT22;32724;51.094;6.996;2023-04-24T07:34:06;8.10;99.90
46976;DHT22;32724;51.094;6.996;2023-04-24T07:36:31;8.00;99.90
46976;DHT22;32724;51.094;6.996;2023-04-24T07:38:57;7.90;99.90
46976;DHT22;32724;51.094;6.996;2023-04-24T07:41:23;7.90;99.90
46976;DHT22;32724;51.094;6.996;2023-04-24T07:43:49;7.90;99.90
46976;DHT22;32724;51.094;6.996;2023-04-24T07:46:15;8.00;99.90
46976;DHT22;32724;51.094;6.996;2023-04-24T07:48:40;7.90;99.90
46976;DHT22;32724;51.094;6.996;2023-04-24T07:51:05;7.90;99.90
46976;DHT22;32724;51.094;6.996;2023-04-24T07:53:31;7.80;99.90
46976;DHT22;32724;51.094;6.996;2023-04-24T07:55:57;7.90;99.90
46976;DHT22;32724;51.094;6.996;2023-04-24T07:58:22;8.00;99.90
46976;DHT22;32724;51.094;6.996;2023-04-24T08:00:48;7.70;99.90
46976;DHT22;32724;51.094;6.996;2023-04-24T08:03:13;7.60;99.90
46976;DHT22;32724;51.094;6.996;2023-04-24T08:05:39;7.60;99.90
46976;DHT22;32724;51.094;6.996;2023-04-24T08:08:05;7.50;99.90
46976;DHT22;32724;51.094;6.996;2023-04-24T08:10:31;7.30;99.90
46976;DHT22;32724;51.094;6.996;2023-04-24T08:12:56;7.20;99.90
46976;DHT22;32724;51.094;6.996;2023-04-24T08:15:22;7.10;99.90
46976;DHT22;32724;51.094;6.996;2023-04-24T08:17:47;7.10;99.90
46976;DHT22;32724;51.094;6.996;2023-04-24T08:20:13;7.10;99.90
46976;DHT22;32724;51.094;6.996;2023-04-24T08:22:39;7.10;99.90
46976;DHT22;32724;51.094;6.996;2023-04-24T08:25:05;7.00;99.90
46976;DHT22;32724;51.094;6.996;2023-04-24T08:27:31;7.10;99.90
46976;DHT22;32724;51.094;6.996;2023-04-24T08:29:57;7.20;99.90
46976;DHT22;32724;51.094;6.996;2023-04-24T08:32:23;7.20;99.90
46976;DHT22;32724;51.094;6.996;2023-04-24T08:34:48;7.30;99.90
46976;DHT22;32724;51.094;6.996;2023-04-24T08:37:13;7.40;99.90
46976;DHT22;32724;51.094;6.996;2023-04-24T08:39:39;7.30;99.90
46976;DHT22;32724;51.094;6.996;2023-04-24T08:42:05;7.30;99.90
46976;DHT22;32724;51.094;6.996;2023-04-24T08:44:33;7.30;99.90
46976;DHT22;32724;51.094;6.996;2023-04-24T08:46:59;7.40;99.90
46976;DHT22;32724;51.094;6.996;2023-04-24T08:49:25;7.30;99.90
46976;DHT22;32724;51.094;6.996;2023-04-24T08:51:52;7.20;99.90
46976;DHT22;32724;51.094;6.996;2023-04-24T08:54:17;7.10;99.90
46976;DHT22;32724;51.094;6.996;2023-04-24T08:56:43;7.20;99.90
46976;DHT22;32724;51.094;6.996;2023-04-24T08:59:10;7.30;99.90
46976;DHT22;32724;51.094;6.996;2023-04-24T09:01:35;7.30;99.90
46976;DHT22;32724;51.094;6.996;2023-04-24T09:04:02;7.40;99.90
46976;DHT22;32724;51.094;6.996;2023-04-24T09:06:29;7.40;99.90
46976;DHT22;32724;51.094;6.996;2023-04-24T09:08:55;7.50;99.90
46976;DHT22;32724;51.094;6.996;2023-04-24T09:11:22;7.50;99.90
46976;DHT22;32724;51.094;6.996;2023-04-24T09:13:49;7.50;99.90
46976;DHT22;32724;51.094;6.996;2023-04-24T09:16:15;7.60;99.90
46976;DHT22;32724;51.094;6.996;2023-04-24T09:18:40;7.70;99.90
46976;DHT22;32724;51.094;6.996;2023-04-24T09:21:07;7.60;99.90
46976;DHT22;32724;51.094;6.996;2023-04-24T09:23:32;7.60;99.90
46976;DHT22;32724;51.094;6.996;2023-04-24T09:25:59;7.60;99.90
46976;DHT22;32724;51.094;6.996;2023-04-24T09:28:35;7.60;99.90
46976;DHT22;32724;51.094;6.996;2023-04-24T09:31:05;7.80;99.90
46976;DHT22;32724;51.094;6.996;2023-04-24T09:33:31;7.80;99.90
46976;DHT22;32724;51.094;6.996;2023-04-24T09:35:56;7.70;99.90
46976;DHT22;32724;51.094;6.996;2023-04-24T09:38:34;7.70;99.90
46976;DHT22;32724;51.094;6.996;2023-04-24T09:41:01;7.70;99.90
46976;DHT22;32724;51.094;6.996;2023-04-24T09:43:28;7.70;99.90
46976;DHT22;32724;51.094;6.996;2023-04-24T09:45:57;7.80;99.90
46976;DHT22;32724;51.094;6.996;2023-04-24T09:48:30;7.80;99.90
46976;DHT22;32724;51.094;6.996;2023-04-24T09:50:57;7.80;99.90
46976;DHT22;32724;51.094;6.996;2023-04-24T09:53:26;7.80;99.90
46976;DHT22;32724;51.094;6.996;2023-04-24T09:55:51;7.70;99.90
46976;DHT22;32724;51.094;6.996;2023-04-24T09:58:18;7.80;99.90
46976;DHT22;32724;51.094;6.996;2023-04-24T10:00:49;7.90;99.90
46976;DHT22;32724;51.094;6.996;2023-04-24T10:03:15;7.90;99.90
46976;DHT22;32724;51.094;6.996;2023-04-24T10:05:42;7.90;99.90
46976;DHT22;32724;51.094;6.996;2023-04-24T10:08:11;8.00;99.90
46976;DHT22;32724;51.094;6.996;2023-04-24T10:10:44;8.00;99.90
46976;DHT22;32724;51.094;6.996;2023-04-24T10:13:10;8.00;99.90
46976;DHT22;32724;51.094;6.996;2023-04-24T10:15:36;8.10;99.90
46976;DHT22;32724;51.094;6.996;2023-04-24T10:18:04;8.20;99.90
46976;DHT22;32724;51.094;6.996;2023-04-24T10:20:30;8.30;99.90
46976;DHT22;32724;51.094;6.996;2023-04-24T10:22:56;8.40;99.90
46976;DHT22;32724;51.094;6.996;2023-04-24T10:25:24;8.70;99.90
46976;DHT22;32724;51.094;6.996;2023-04-24T10:27:50;8.70;99.90
46976;DHT22;32724;51.094;6.996;2023-04-24T10:30:16;8.80;99.90
46976;DHT22;32724;51.094;6.996;2023-04-24T10:32:43;8.90;99.90
46976;DHT22;32724;51.094;6.996;2023-04-24T10:35:09;8.90;99.90
46976;DHT22;32724;51.094;6.996;2023-04-24T10:37:35;9.00;99.90
46976;DHT22;32724;51.094;6.996;2023-04-24T10:40:01;9.00;99.90
46976;DHT22;32724;51.094;6.996;2023-04-24T10:42:27;9.20;99.90
46976;DHT22;32724;51.094;6.996;2023-04-24T10:44:52;9.30;99.90
46976;DHT22;32724;51.094;6.996;2023-04-24T10:47:19;9.30;99.90
46976;DHT22;32724;51.094;6.996;2023-04-24T10:49:45;9.50;99.90
46976;DHT22;32724;51.094;6.996;2023-04-24T10:52:12;9.30;99.90
46976;DHT22;32724;51.094;6.996;2023-04-24T10:54:45;9.00;99.90
46976;DHT22;32724;51.094;6.996;2023-04-24T10:59:46;8.80;99.90
46976;DHT22;32724;51.094;6.996;2023-04-24T11:02:14;8.80;99.90
46976;DHT22;32724;51.094;6.996;2023-04-24T11:04:40;8.90;99.90
46976;DHT22;32724;51.094;6.996;2023-04-24T11:07:06;9.00;99.90
46976;DHT22;32724;51.094;6.996;2023-04-24T11:09:32;9.10;99.90
46976;DHT22;32724;51.094;6.996;2023-04-24T11:12:07;9.30;99.90
46976;DHT22;32724;51.094;6.996;2023-04-24T11:17:29;9.50;99.90
46976;DHT22;32724;51.094;6.996;2023-04-24T11:20:00;9.50;99.90
46976;DHT22;32724;51.094;6.996;2023-04-24T11:22:25;9.60;99.90
46976;DHT22;32724;51.094;6.996;2023-04-24T11:24:54;9.60;99.90
46976;DHT22;32724;51.094;6.996;2023-04-24T11:27:20;9.60;99.90
46976;DHT22;32724;51.094;6.996;2023-04-24T11:32:19;9.70;99.90
46976;DHT22;32724;51.094;6.996;2023-04-24T11:34:58;9.90;99.90
46976;DHT22;32724;51.094;6.996;2023-04-24T11:37:24;10.20;99.90
46976;DHT22;32724;51.094;6.996;2023-04-24T11:39:52;10.60;99.90
46976;DHT22;32724;51.094;6.996;2023-04-24T11:42:17;10.90;99.90
46976;DHT22;32724;51.094;6.996;2023-04-24T11:44:43;11.00;99.90
46976;DHT22;32724;51.094;6.996;2023-04-24T11:47:08;11.20;99.90
46976;DHT22;32724;51.094;6.996;2023-04-24T11:49:37;11.30;99.90
46976;DHT22;32724;51.094;6.996;2023-04-24T11:52:04;11.40;99.90
46976;DHT22;32724;51.094;6.996;2023-04-24T11:54:29;11.70;99.90
46976;DHT22;32724;51.094;6.996;2023-04-24T11:56:55;11.70;99.90
46976;DHT22;32724;51.094;6.996;2023-04-24T11:59:21;11.40;99.90
46976;DHT22;32724;51.094;6.996;2023-04-24T12:01:47;11.00;99.90
46976;DHT22;32724;51.094;6.996;2023-04-24T12:04:14;11.00;99.90
46976;DHT22;32724;51.094;6.996;2023-04-24T12:07:00;11.10;99.90
46976;DHT22;32724;51.094;6.996;2023-04-24T12:09:26;11.10;99.90
46976;DHT22;32724;51.094;6.996;2023-04-24T12:11:56;11.20;99.90
46976;DHT22;32724;51.094;6.996;2023-04-24T12:14:22;11.20;99.90
46976;DHT22;32724;51.094;6.996;2023-04-24T12:16:48;11.00;99.90
46976;DHT22;32724;51.094;6.996;2023-04-24T12:19:21;11.10;99.90
46976;DHT22;32724;51.094;6.996;2023-04-24T12:21:58;11.10;99.90
46976;DHT22;32724;51.094;6.996;2023-04-24T12:24:24;11.30;99.90
46976;DHT22;32724;51.094;6.996;2023-04-24T12:26:49;11.50;99.90
46976;DHT22;32724;51.094;6.996;2023-04-24T12:29:19;11.60;99.90
46976;DHT22;32724;51.094;6.996;2023-04-24T12:31:45;11.60;99.90
46976;DHT22;32724;51.094;6.996;2023-04-24T12:34:20;11.50;99.90
46976;DHT22;32724;51.094;6.996;2023-04-24T12:36:46;11.50;99.90
46976;DHT22;32724;51.094;6.996;2023-04-24T12:39:15;11.40;99.90
46976;DHT22;32724;51.094;6.996;2023-04-24T12:41:55;11.60;99.90
46976;DHT22;32724;51.094;6.996;2023-04-24T12:44:31;11.40;99.90
46976;DHT22;32724;51.094;6.996;2023-04-24T12:46:57;11.50;99.90
46976;DHT22;32724;51.094;6.996;2023-04-24T12:49:23;11.60;99.90
46976;DHT22;32724;51.094;6.996;2023-04-24T12:51:48;11.60;99.90
46976;DHT22;32724;51.094;6.996;2023-04-24T12:54:14;11.50;99.90
46976;DHT22;32724;51.094;6.996;2023-04-24T12:56:39;11.50;99.90
46976;DHT22;32724;51.094;6.996;2023-04-24T12:59:05;11.40;99.90
46976;DHT22;32724;51.094;6.996;2023-04-24T13:01:30;11.40;99.90
46976;DHT22;32724;51.094;6.996;2023-04-24T13:03:56;11.40;99.90
46976;DHT22;32724;51.094;6.996;2023-04-24T13:06:21;11.60;99.90
46976;DHT22;32724;51.094;6.996;2023-04-24T13:08:47;12.00;99.90
46976;DHT22;32724;51.094;6.996;2023-04-24T13:11:13;12.30;99.90
46976;DHT22;32724;51.094;6.996;2023-04-24T13:13:39;12.50;99.90
46976;DHT22;32724;51.094;6.996;2023-04-24T13:16:05;12.60;99.90
46976;DHT22;32724;51.094;6.996;2023-04-24T13:18:30;12.40;99.90
46976;DHT22;32724;51.094;6.996;2023-04-24T13:20:56;11.90;99.90
46976;DHT22;32724;51.094;6.996;2023-04-24T13:23:21;11.50;99.90
46976;DHT22;32724;51.094;6.996;2023-04-24T13:25:48;11.50;99.90
46976;DHT22;32724;51.094;6.996;2023-04-24T13:28:13;11.60;99.90
46976;DHT22;32724;51.094;6.996;2023-04-24T13:30:39;11.80;99.90
46976;DHT22;32724;51.094;6.996;2023-04-24T13:33:04;11.90;99.90
46976;DHT22;32724;51.094;6.996;2023-04-24T13:35:30;12.10;99.90
46976;DHT22;32724;51.094;6.996;2023-04-24T13:37:57;12.30;99.90
46976;DHT22;32724;51.094;6.996;2023-04-24T13:40:22;12.40;99.90
46976;DHT22;32724;51.094;6.996;2023-04-24T13:42:48;12.60;99.90
46976;DHT22;32724;51.094;6.996;2023-04-24T13:45:13;12.60;99.90
46976;DHT22;32724;51.094;6.996;2023-04-24T13:47:39;12.60;99.90
46976;DHT22;32724;51.094;6.996;2023-04-24T13:50:07;12.60;99.90
46976;DHT22;32724;51.094;6.996;2023-04-24T13:52:33;12.50;99.90
46976;DHT22;32724;51.094;6.996;2023-04-24T13:54:59;12.30;99.90
46976;DHT22;32724;51.094;6.996;2023-04-24T13:57:24;12.10;99.90
46976;DHT22;32724;51.094;6.996;2023-04-24T13:59:50;12.00;99.90
46976;DHT22;32724;51.094;6.996;2023-04-24T14:02:15;11.90;99.90
46976;DHT22;32724;51.094;6.996;2023-04-24T14:04:41;12.00;99.90
46976;DHT22;32724;51.094;6.996;2023-04-24T14:07:06;12.10;99.90
46976;DHT22;32724;51.094;6.996;2023-04-24T14:09:33;12.00;99.90
46976;DHT22;32724;51.094;6.996;2023-04-24T14:11:58;12.20;99.90
46976;DHT22;32724;51.094;6.996;2023-04-24T14:14:24;12.40;99.90
46976;DHT22;32724;51.094;6.996;2023-04-24T14:16:50;12.40;99.90
46976;DHT22;32724;51.094;6.996;2023-04-24T14:19:15;12.70;99.90
46976;DHT22;32724;51.094;6.996;2023-04-24T14:21:40;12.80;99.90
46976;DHT22;32724;51.094;6.996;2023-04-24T14:24:06;12.70;99.90
46976;DHT22;32724;51.094;6.996;2023-04-24T14:26:32;12.70;99.90
46976;DHT22;32724;51.094;6.996;2023-04-24T14:28:58;12.70;99.90
46976;DHT22;32724;51.094;6.996;2023-04-24T14:31:24;12.60;99.90
46976;DHT22;32724;51.094;6.996;2023-04-24T14:33:49;12.50;99.90
46976;DHT22;32724;51.094;6.996;2023-04-24T14:36:15;12.70;99.90
46976;DHT22;32724;51.094;6.996;2023-04-24T14:38:40;12.60;99.90
46976;DHT22;32724;51.094;6.996;2023-04-24T14:41:06;12.50;99.90
46976;DHT22;32724;51.094;6.996;2023-04-24T14:43:34;12.40;99.90
46976;DHT22;32724;51.094;6.996;2023-04-24T14:46:00;12.30;99.90
46976;DHT22;32724;51.094;6.996;2023-04-24T14:48:25;12.00;99.90
46976;DHT22;32724;51.094;6.996;2023-04-24T14:50:51;12.00;99.90
46976;DHT22;32724;51.094;6.996;2023-04-24T14:53:16;12.10;99.90
46976;DHT22;32724;51.094;6.996;2023-04-24T14:55:42;12.40;99.90
46976;DHT22;32724;51.094;6.996;2023-04-24T14:58:07;12.80;99.90
46976;DHT22;32724;51.094;6.996;2023-04-24T15:00:33;13.00;99.90
46976;DHT22;32724;51.094;6.996;2023-04-24T15:02:59;12.80;99.90
46976;DHT22;32724;51.094;6.996;2023-04-24T15:05:25;12.80;99.90
46976;DHT22;32724;51.094;6.996;2023-04-24T15:07:50;13.00;99.90
46976;DHT22;32724;51.094;6.996;2023-04-24T15:10:16;13.20;99.90
46976;DHT22;32724;51.094;6.996;2023-04-24T15:12:42;13.30;99.90
46976;DHT22;32724;51.094;6.996;2023-04-24T15:15:08;13.40;99.90
46976;DHT22;32724;51.094;6.996;2023-04-24T15:17:34;13.10;99.90
46976;DHT22;32724;51.094;6.996;2023-04-24T15:19:59;12.60;99.90
46976;DHT22;32724;51.094;6.996;2023-04-24T15:22:26;12.60;99.90
46976;DHT22;32724;51.094;6.996;2023-04-24T15:24:51;12.70;99.90
46976;DHT22;32724;51.094;6.996;2023-04-24T15:27:17;12.80;99.90
46976;DHT22;32724;51.094;6.996;2023-04-24T15:29:42;12.60;99.90
46976;DHT22;32724;51.094;6.996;2023-04-24T15:32:08;12.50;99.90
46976;DHT22;32724;51.094;6.996;2023-04-24T15:34:34;12.20;99.90
46976;DHT22;32724;51.094;6.996;2023-04-24T15:37:00;12.20;99.90
46976;DHT22;32724;51.094;6.996;2023-04-24T15:39:25;12.40;99.90
46976;DHT22;32724;51.094;6.996;2023-04-24T15:41:52;12.70;99.90